createdAt,value
2018-04-06T00:01:52.667Z,99.90
2018-04-06T00:04:20.103Z,99.90
2018-04-06T00:06:47.552Z,99.90
2018-04-06T00:09:14.996Z,99.90
2018-04-06T00:11:42.463Z,99.90
2018-04-06T00:14:09.957Z,99.90
2018-04-06T00:16:37.395Z,99.90
2018-04-06T00:19:04.834Z,99.90
2018-04-06T00:21:32.280Z,99.90
2018-04-06T00:23:59.711Z,99.90
2018-04-06T00:26:27.157Z,99.90
2018-04-06T00:28:54.579Z,99.90
2018-04-06T00:31:22.028Z,99.90
2018-04-06T00:33:49.468Z,99.90
2018-04-06T00:36:16.902Z,99.90
2018-04-06T00:38:44.339Z,99.90
2018-04-06T00:41:11.783Z,99.90
2018-04-06T00:43:39.247Z,99.90
2018-04-06T00:46:06.708Z,99.90
2018-04-06T00:48:34.154Z,99.90
2018-04-06T00:51:02.361Z,99.90
2018-04-06T00:53:41.623Z,99.90
2018-04-06T00:56:09.064Z,99.90
2018-04-06T00:58:36.499Z,99.90
2018-04-06T01:01:03.949Z,99.90
2018-04-06T01:03:31.376Z,99.90
2018-04-06T01:05:58.815Z,99.90
2018-04-06T01:08:26.252Z,99.90
2018-04-06T01:10:53.692Z,99.90
2018-04-06T01:13:21.124Z,99.90
2018-04-06T01:15:48.569Z,99.90
2018-04-06T01:18:16.004Z,99.90
2018-04-06T01:20:43.446Z,99.90
2018-04-06T01:23:10.875Z,99.90
2018-04-06T01:25:39.085Z,99.90
2018-04-06T01:28:06.511Z,99.90
2018-04-06T01:30:34.718Z,99.90
2018-04-06T01:33:02.166Z,99.90
2018-04-06T01:35:30.376Z,99.90
2018-04-06T01:37:57.811Z,99.90
2018-04-06T01:40:26.019Z,99.90
2018-04-06T01:42:53.452Z,99.90
2018-04-06T01:45:20.899Z,99.90
2018-04-06T01:47:49.091Z,99.90
2018-04-06T01:50:16.524Z,99.90
2018-04-06T01:52:43.972Z,99.90
2018-04-06T01:55:11.403Z,99.90
2018-04-06T01:57:38.872Z,99.90
2018-04-06T02:00:06.312Z,99.90
2018-04-06T02:02:33.776Z,99.90
2018-04-06T02:05:01.192Z,99.90
2018-04-06T02:07:28.631Z,99.90
2018-04-06T02:09:56.068Z,99.90
2018-04-06T02:12:23.513Z,99.90
2018-04-06T02:14:50.941Z,99.90
2018-04-06T02:17:19.148Z,99.90
2018-04-06T02:19:46.605Z,99.90
2018-04-06T02:22:14.798Z,99.90
2018-04-06T02:24:42.304Z,99.90
2018-04-06T02:27:10.430Z,99.90
2018-04-06T02:29:37.873Z,99.90
2018-04-06T02:32:06.072Z,99.90
2018-04-06T02:34:33.508Z,99.90
2018-04-06T02:37:01.746Z,99.90
2018-04-06T02:39:29.159Z,99.90
2018-04-06T02:41:56.599Z,99.90
2018-04-06T02:44:24.811Z,99.90
2018-04-06T02:46:52.253Z,99.90
2018-04-06T02:49:20.451Z,99.90
2018-04-06T02:51:47.891Z,99.90
2018-04-06T02:54:16.089Z,99.90
2018-04-06T02:56:43.528Z,99.90
2018-04-06T02:59:11.751Z,99.90
2018-04-06T03:01:39.193Z,99.90
2018-04-06T03:04:06.630Z,99.90
2018-04-06T03:06:34.833Z,99.90
2018-04-06T03:09:02.261Z,99.90
2018-04-06T03:11:30.467Z,99.90
2018-04-06T03:13:57.908Z,99.90
2018-04-06T03:16:26.122Z,99.90
2018-04-06T03:18:53.570Z,99.90
2018-04-06T03:21:21.028Z,99.90
2018-04-06T03:23:48.447Z,99.90
2018-04-06T03:26:15.907Z,99.90
2018-04-06T03:28:43.341Z,99.90
2018-04-06T03:31:10.764Z,99.90
2018-04-06T03:33:38.211Z,99.90
2018-04-06T03:36:06.409Z,99.90
2018-04-06T03:38:33.851Z,99.90
2018-04-06T03:41:02.052Z,99.90
2018-04-06T03:43:29.499Z,99.90
2018-04-06T03:45:56.972Z,99.90
2018-04-06T03:48:24.400Z,99.90
2018-04-06T03:50:52.600Z,99.90
2018-04-06T03:53:20.044Z,99.90
2018-04-06T03:55:48.235Z,99.90
2018-04-06T03:58:15.676Z,99.90
2018-04-06T04:00:43.876Z,99.90
2018-04-06T04:03:11.663Z,99.90
2018-04-06T04:05:39.092Z,99.90
2018-04-06T04:08:07.299Z,99.90
2018-04-06T04:10:34.757Z,99.90
2018-04-06T04:13:02.205Z,99.90
2018-04-06T04:15:30.403Z,99.90
2018-04-06T04:17:57.841Z,99.90
2018-04-06T04:20:26.052Z,99.90
2018-04-06T04:22:53.495Z,99.90
2018-04-06T04:25:20.938Z,99.90
2018-04-06T04:27:48.383Z,99.90
2018-04-06T04:30:16.596Z,99.90
2018-04-06T04:32:44.040Z,99.90
2018-04-06T04:35:12.245Z,99.90
2018-04-06T04:37:39.699Z,99.90
2018-04-06T04:40:07.119Z,99.90
2018-04-06T04:42:34.559Z,99.90
2018-04-06T04:45:01.984Z,99.90
2018-04-06T04:47:29.434Z,99.90
2018-04-06T04:49:56.872Z,99.90
2018-04-06T04:52:25.087Z,99.90
2018-04-06T04:54:52.520Z,99.90
2018-04-06T04:57:21.537Z,99.90
2018-04-06T04:59:48.963Z,99.90
2018-04-06T05:02:16.415Z,99.90
2018-04-06T05:04:43.893Z,99.90
2018-04-06T05:07:12.104Z,99.90
2018-04-06T05:09:39.548Z,99.90
2018-04-06T05:12:06.980Z,99.90
2018-04-06T05:14:34.420Z,99.90
2018-04-06T05:17:01.860Z,99.90
2018-04-06T05:19:29.291Z,99.90
2018-04-06T05:21:56.720Z,99.90
2018-04-06T05:24:24.173Z,99.90
2018-04-06T05:26:51.599Z,99.90
2018-04-06T05:29:19.043Z,99.90
2018-04-06T05:31:46.472Z,99.90
2018-04-06T05:34:13.935Z,99.90
2018-04-06T05:36:42.254Z,99.90
2018-04-06T05:39:09.683Z,99.90
2018-04-06T05:41:37.883Z,99.90
2018-04-06T05:44:05.323Z,99.90
2018-04-06T05:46:34.320Z,99.90
2018-04-06T05:49:02.528Z,99.90
2018-04-06T05:51:29.975Z,99.90
2018-04-06T05:53:57.416Z,99.90
2018-04-06T05:56:25.620Z,99.90
2018-04-06T05:58:53.088Z,99.90
2018-04-06T06:01:20.550Z,99.90
2018-04-06T06:03:47.973Z,99.90
2018-04-06T06:06:15.423Z,99.90
2018-04-06T06:08:42.865Z,99.90
2018-04-06T06:11:10.382Z,99.90
2018-04-06T06:13:38.585Z,99.90
2018-04-06T06:16:06.019Z,99.90
2018-04-06T06:18:34.228Z,99.90
2018-04-06T06:21:01.716Z,99.90
2018-04-06T06:23:29.951Z,99.90
2018-04-06T06:25:57.396Z,99.90
2018-04-06T06:28:25.608Z,99.90
2018-04-06T06:30:53.040Z,99.90
2018-04-06T06:33:21.243Z,99.90
2018-04-06T06:35:48.675Z,99.90
2018-04-06T06:38:16.879Z,99.90
2018-04-06T06:40:44.312Z,99.90
2018-04-06T06:43:13.083Z,99.90
2018-04-06T06:45:40.516Z,99.90
2018-04-06T06:48:07.975Z,99.90
2018-04-06T06:50:36.284Z,99.90
2018-04-06T06:53:03.729Z,99.90
2018-04-06T06:55:31.936Z,99.90
2018-04-06T06:58:00.173Z,99.90
2018-04-06T07:00:27.605Z,99.90
2018-04-06T07:02:55.040Z,99.90
2018-04-06T07:05:23.271Z,99.90
2018-04-06T07:07:50.709Z,99.90
2018-04-06T07:10:18.151Z,99.90
2018-04-06T07:12:46.367Z,99.90
2018-04-06T07:15:13.800Z,99.90
2018-04-06T07:17:41.374Z,99.90
2018-04-06T07:20:08.811Z,99.90
2018-04-06T07:22:37.016Z,99.90
2018-04-06T07:25:04.468Z,99.90
2018-04-06T07:27:31.922Z,99.90
2018-04-06T07:29:59.380Z,98.70
2018-04-06T07:32:26.831Z,98.20
2018-04-06T07:34:55.032Z,96.70
2018-04-06T07:37:22.480Z,96.60
2018-04-06T07:39:49.938Z,93.70
2018-04-06T07:42:18.132Z,82.40
2018-04-06T07:44:45.600Z,82.30
2018-04-06T07:47:13.092Z,68.70
2018-04-06T07:49:40.535Z,56.30
2018-04-06T07:52:07.987Z,48.50
2018-04-06T07:54:35.419Z,42.80
2018-04-06T07:57:03.702Z,35.90
2018-04-06T07:59:31.187Z,35.70
2018-04-06T08:01:58.619Z,33.10
2018-04-06T08:04:26.838Z,29.40
2018-04-06T08:06:54.271Z,29.30
2018-04-06T08:09:21.716Z,27.80
2018-04-06T08:11:49.928Z,25.00
2018-04-06T08:14:17.368Z,25.00
2018-04-06T08:16:44.814Z,24.40
2018-04-06T08:19:13.029Z,23.30
2018-04-06T08:21:40.525Z,23.40
2018-04-06T08:24:07.979Z,23.70
2018-04-06T08:26:35.416Z,26.90
2018-04-06T08:29:02.856Z,29.60
2018-04-06T08:31:30.295Z,34.10
2018-04-06T08:33:58.502Z,35.20
2018-04-06T08:36:25.956Z,35.10
2018-04-06T08:38:53.391Z,32.10
2018-04-06T08:41:20.835Z,28.50
2018-04-06T08:43:48.284Z,28.30
2018-04-06T08:46:15.724Z,27.70
2018-04-06T08:48:43.233Z,26.30
2018-04-06T08:51:10.744Z,26.40
2018-04-06T08:53:38.180Z,25.60
2018-04-06T08:56:06.388Z,24.40
2018-04-06T08:58:33.828Z,24.40
2018-04-06T09:01:01.288Z,24.40
2018-04-06T09:03:29.479Z,27.00
2018-04-06T09:05:56.940Z,26.40
2018-04-06T09:08:24.377Z,28.50
2018-04-06T09:10:52.597Z,32.80
2018-04-06T09:13:20.075Z,32.80
2018-04-06T09:15:47.525Z,30.30
2018-04-06T09:18:15.073Z,26.70
2018-04-06T09:20:42.516Z,25.20
2018-04-06T09:23:09.992Z,25.50
2018-04-06T09:25:37.424Z,24.50
2018-04-06T09:28:05.629Z,23.90
2018-04-06T09:30:33.077Z,23.80
2018-04-06T09:33:00.517Z,22.90
2018-04-06T09:35:28.729Z,22.50
2018-04-06T09:37:56.160Z,22.90
2018-04-06T09:40:24.384Z,21.40
2018-04-06T09:42:51.838Z,21.40
2018-04-06T09:45:19.337Z,21.50
2018-04-06T09:47:46.767Z,21.80
2018-04-06T09:50:14.219Z,21.30
2018-04-06T09:52:41.659Z,21.70
2018-04-06T09:55:09.867Z,23.40
2018-04-06T09:57:37.300Z,23.40
2018-04-06T10:00:04.811Z,27.10
2018-04-06T10:02:37.838Z,28.40
2018-04-06T10:05:06.115Z,27.60
2018-04-06T10:07:35.132Z,27.80
2018-04-06T10:10:02.604Z,27.70
2018-04-06T10:12:30.033Z,28.70
2018-04-06T10:14:58.231Z,27.50
2018-04-06T10:17:25.679Z,27.40
2018-04-06T10:19:53.885Z,28.40
2018-04-06T10:22:21.328Z,28.30
2018-04-06T10:24:49.556Z,27.80
2018-04-06T10:27:16.983Z,27.80
2018-04-06T10:29:44.431Z,28.50
2018-04-06T10:32:11.876Z,29.00
2018-04-06T10:34:40.101Z,29.20
2018-04-06T10:37:07.578Z,28.80
2018-04-06T10:39:35.011Z,29.80
2018-04-06T10:42:02.460Z,29.10
2018-04-06T10:44:29.900Z,29.70
2018-04-06T10:46:58.153Z,30.10
2018-04-06T10:49:25.587Z,30.10
2018-04-06T10:51:53.023Z,29.80
2018-04-06T10:54:20.533Z,29.60
2018-04-06T10:56:47.983Z,29.90
2018-04-06T10:59:15.419Z,28.90
2018-04-06T11:01:42.878Z,29.60
2018-04-06T11:04:10.303Z,30.30
2018-04-06T11:06:38.515Z,29.00
2018-04-06T11:09:06.021Z,28.90
2018-04-06T11:11:33.488Z,28.80
2018-04-06T11:14:00.934Z,28.80
2018-04-06T11:16:28.385Z,28.30
2018-04-06T11:18:55.834Z,29.00
2018-04-06T11:21:23.308Z,30.80
2018-04-06T11:23:50.758Z,27.10
2018-04-06T11:26:18.200Z,26.40
2018-04-06T11:28:45.627Z,27.40
2018-04-06T11:31:13.131Z,27.20
2018-04-06T11:33:40.556Z,26.40
2018-04-06T11:36:08.768Z,25.30
2018-04-06T11:38:36.784Z,25.20
2018-04-06T11:41:04.240Z,25.30
2018-04-06T11:43:31.677Z,25.00
2018-04-06T11:45:59.124Z,24.00
2018-04-06T11:48:26.591Z,24.40
2018-04-06T11:50:54.028Z,24.00
2018-04-06T11:53:22.274Z,24.50
2018-04-06T11:55:49.697Z,24.50
2018-04-06T11:58:17.135Z,23.70
2018-04-06T12:00:44.571Z,23.10
2018-04-06T12:03:12.020Z,23.50
2018-04-06T12:05:39.472Z,24.60
2018-04-06T12:08:07.405Z,25.00
2018-04-06T12:10:34.832Z,25.50
2018-04-06T12:13:03.120Z,23.20
2018-04-06T12:15:30.518Z,23.20
2018-04-06T12:17:57.956Z,24.10
2018-04-06T12:20:25.382Z,22.70
2018-04-06T12:22:52.819Z,23.30
2018-04-06T12:25:20.289Z,23.40
2018-04-06T12:27:47.749Z,23.00
2018-04-06T12:30:15.194Z,23.50
2018-04-06T12:32:42.644Z,22.10
2018-04-06T12:35:10.143Z,22.50
2018-04-06T12:37:37.649Z,22.50
2018-04-06T12:40:05.842Z,23.00
2018-04-06T12:42:33.276Z,22.90
2018-04-06T12:45:01.492Z,22.70
2018-04-06T12:47:28.940Z,22.60
2018-04-06T12:49:56.372Z,22.30
2018-04-06T12:52:24.575Z,22.60
2018-04-06T12:54:52.012Z,23.10
2018-04-06T12:57:20.228Z,22.90
2018-04-06T12:59:47.663Z,22.80
2018-04-06T13:02:15.167Z,24.20
2018-04-06T13:04:42.635Z,25.10
2018-04-06T13:07:10.196Z,25.20
2018-04-06T13:09:37.640Z,25.50
2018-04-06T13:12:05.121Z,26.20
2018-04-06T13:14:32.568Z,25.70
2018-04-06T13:17:00.040Z,27.80
2018-04-06T13:19:27.515Z,25.90
2018-04-06T13:21:54.959Z,25.30
2018-04-06T13:24:22.405Z,25.10
2018-04-06T13:26:50.059Z,25.40
2018-04-06T13:29:17.560Z,23.30
2018-04-06T13:31:44.979Z,23.40
2018-04-06T13:34:12.477Z,25.90
2018-04-06T13:36:39.912Z,26.60
2018-04-06T13:39:07.364Z,26.30
2018-04-06T13:41:34.807Z,27.50
2018-04-06T13:44:03.032Z,29.00
2018-04-06T13:46:30.475Z,28.90
2018-04-06T13:48:57.932Z,27.70
2018-04-06T13:51:25.389Z,29.10
2018-04-06T13:53:52.828Z,27.80
2018-04-06T14:02:04.687Z,27.80
2018-04-06T14:04:32.126Z,27.70
2018-04-06T14:06:59.561Z,27.70
2018-04-06T14:09:27.770Z,28.10
2018-04-06T14:11:55.208Z,28.10
2018-04-06T14:14:22.661Z,27.40
2018-04-06T14:16:50.888Z,26.90
2018-04-06T14:19:18.352Z,26.80
2018-04-06T14:21:45.891Z,26.70
2018-04-06T14:24:13.319Z,27.50
2018-04-06T14:26:41.631Z,27.90
2018-04-06T14:29:09.083Z,27.90
2018-04-06T14:31:37.279Z,29.60
2018-04-06T14:34:04.755Z,29.50
2018-04-06T14:36:32.195Z,28.70
2018-04-06T14:38:59.691Z,29.00
2018-04-06T14:41:27.170Z,28.50
2018-04-06T14:43:54.881Z,29.10
2018-04-06T14:46:22.312Z,28.10
2018-04-06T14:48:50.534Z,29.60
2018-04-06T14:51:17.957Z,29.50
2018-04-06T14:53:46.191Z,28.60
2018-04-06T14:56:13.640Z,28.50
2018-04-06T14:58:41.084Z,28.80
2018-04-06T15:01:08.575Z,29.50
2018-04-06T15:03:36.063Z,28.90
2018-04-06T15:06:03.491Z,28.10
2018-04-06T15:08:30.953Z,29.50
2018-04-06T15:10:58.392Z,29.20
2018-04-06T15:13:26.602Z,29.00
2018-04-06T15:15:54.155Z,29.40
2018-04-06T15:18:21.612Z,30.00
2018-04-06T15:20:49.053Z,29.70
2018-04-06T15:23:16.488Z,30.20
2018-04-06T15:25:44.683Z,30.50
2018-04-06T15:28:12.515Z,32.20
2018-04-06T15:30:39.951Z,30.00
2018-04-06T15:33:07.501Z,30.10
2018-04-06T15:35:34.927Z,28.70
2018-04-06T15:38:03.160Z,28.30
2018-04-06T15:40:30.618Z,28.30
2018-04-06T15:42:59.367Z,26.30
2018-04-06T15:45:27.564Z,27.80
2018-04-06T15:47:54.999Z,27.70
2018-04-06T15:50:23.229Z,29.60
2018-04-06T15:52:50.664Z,29.60
2018-04-06T15:55:18.114Z,32.00
2018-04-06T15:57:45.544Z,28.90
2018-04-06T16:00:13.763Z,30.80
2018-04-06T16:02:41.200Z,30.80
2018-04-06T16:05:09.428Z,29.70
2018-04-06T16:07:36.874Z,29.50
2018-04-06T16:10:04.357Z,28.80
2018-04-06T16:12:31.808Z,31.50
2018-04-06T16:14:59.249Z,30.20
2018-04-06T16:17:26.679Z,28.30
2018-04-06T16:19:54.913Z,29.00
2018-04-06T16:22:22.345Z,29.00
2018-04-06T16:24:49.832Z,29.90
2018-04-06T16:27:17.266Z,31.10
2018-04-06T16:29:44.717Z,30.30
2018-04-06T16:32:13.843Z,30.10
2018-04-06T16:34:41.311Z,31.10
2018-04-06T16:37:08.775Z,30.60
2018-04-06T16:39:36.240Z,31.60
2018-04-06T16:42:03.747Z,31.40
2018-04-06T16:44:31.961Z,31.80
2018-04-06T16:46:59.448Z,31.80
2018-04-06T16:49:26.898Z,31.60
2018-04-06T16:51:54.336Z,32.30
2018-04-06T16:54:21.877Z,32.90
2018-04-06T16:56:49.344Z,32.40
2018-04-06T16:59:18.174Z,33.50
2018-04-06T17:01:45.592Z,33.50
2018-04-06T17:04:13.804Z,34.80
2018-04-06T17:06:41.274Z,34.70
2018-04-06T17:09:08.757Z,36.70
2018-04-06T17:11:36.277Z,33.00
2018-04-06T17:14:03.728Z,33.60
2018-04-06T17:16:31.952Z,36.90
2018-04-06T17:18:59.400Z,36.80
2018-04-06T17:21:26.843Z,36.90
2018-04-06T17:23:54.438Z,32.70
2018-04-06T17:26:21.882Z,33.30
2018-04-06T17:28:49.311Z,32.70
2018-04-06T17:31:16.820Z,32.90
2018-04-06T17:33:44.267Z,32.20
2018-04-06T17:36:11.716Z,32.70
2018-04-06T17:38:39.187Z,32.30
2018-04-06T17:41:06.729Z,32.80
2018-04-06T17:43:34.242Z,32.90
2018-04-06T17:46:01.679Z,32.80
2018-04-06T17:48:29.124Z,33.10
2018-04-06T17:50:56.567Z,32.90
2018-04-06T17:53:24.013Z,32.90
2018-04-06T17:55:52.224Z,33.60
2018-04-06T17:58:19.664Z,33.50
2018-04-06T18:00:47.108Z,33.50
2018-04-06T18:03:15.330Z,33.60
2018-04-06T18:05:42.772Z,33.60
2018-04-06T18:08:10.464Z,34.00
2018-04-06T18:10:37.908Z,36.70
2018-04-06T18:13:05.344Z,34.40
2018-04-06T18:15:33.553Z,36.00
2018-04-06T18:18:01.017Z,35.90
2018-04-06T18:20:28.473Z,34.80
2018-04-06T18:22:55.907Z,34.80
2018-04-06T18:25:24.112Z,36.10
2018-04-06T18:27:51.589Z,36.00
2018-04-06T18:30:19.151Z,35.60
2018-04-06T18:32:46.626Z,36.50
2018-04-06T18:35:14.074Z,36.70
2018-04-06T18:37:41.539Z,35.80
2018-04-06T18:40:09.014Z,36.10
2018-04-06T18:42:36.461Z,36.70
2018-04-06T18:45:03.903Z,36.80
2018-04-06T18:47:31.337Z,39.90
2018-04-06T18:49:59.604Z,39.40
2018-04-06T18:52:27.032Z,39.30
2018-04-06T18:54:54.501Z,40.50
2018-04-06T18:57:21.988Z,37.80
2018-04-06T18:59:49.415Z,38.30
2018-04-06T19:02:16.864Z,37.10
2018-04-06T19:04:44.672Z,37.70
2018-04-06T19:07:12.232Z,37.20
2018-04-06T19:09:40.720Z,37.10
2018-04-06T19:12:08.930Z,37.70
2018-04-06T19:14:36.367Z,37.70
2018-04-06T19:17:03.872Z,38.00
2018-04-06T19:19:31.291Z,37.60
2018-04-06T19:21:58.793Z,37.30
2018-04-06T19:24:26.231Z,38.80
2018-04-06T19:26:54.431Z,40.10
2018-04-06T19:29:21.866Z,40.00
2018-04-06T19:31:50.078Z,37.30
2018-04-06T19:34:17.504Z,37.20
2018-04-06T19:36:45.733Z,38.60
2018-04-06T19:39:13.890Z,38.60
2018-04-06T19:41:41.355Z,37.90
2018-04-06T19:44:08.788Z,37.70
2018-04-06T19:46:36.998Z,38.30
2018-04-06T19:49:04.439Z,38.40
2018-04-06T19:51:31.891Z,38.00
2018-04-06T19:54:00.099Z,37.90
2018-04-06T19:56:27.552Z,37.90
2018-04-06T19:58:54.983Z,38.00
2018-04-06T20:01:22.459Z,38.00
2018-04-06T20:03:50.643Z,40.40
2018-04-06T20:06:18.083Z,40.30
2018-04-06T20:08:46.283Z,38.80
2018-04-06T20:11:13.728Z,38.80
2018-04-06T20:13:41.935Z,38.80
2018-04-06T20:16:09.371Z,38.80
2018-04-06T20:18:37.580Z,39.20
2018-04-06T20:21:05.033Z,39.10
2018-04-06T20:23:32.463Z,39.10
2018-04-06T20:26:00.677Z,43.00
2018-04-06T20:28:28.160Z,42.90
2018-04-06T20:30:55.584Z,42.00
2018-04-06T20:33:23.027Z,40.30
2018-04-06T20:35:51.230Z,41.60
2018-04-06T20:38:18.663Z,41.60
2018-04-06T20:40:46.976Z,41.50
2018-04-06T20:43:14.408Z,41.50
2018-04-06T20:45:42.620Z,41.80
2018-04-06T20:48:10.064Z,41.70
2018-04-06T20:50:37.496Z,41.80
2018-04-06T20:53:04.945Z,43.00
2018-04-06T20:55:32.388Z,42.60
2018-04-06T20:57:59.833Z,43.30
2018-04-06T21:00:27.281Z,42.40
2018-04-06T21:02:54.727Z,42.80
2018-04-06T21:05:22.155Z,42.50
2018-04-06T21:07:50.410Z,42.50
2018-04-06T21:10:17.849Z,42.50
2018-04-06T21:12:45.339Z,42.70
2018-04-06T21:15:12.807Z,42.90
2018-04-06T21:17:40.258Z,43.20
2018-04-06T21:20:07.834Z,44.40
2018-04-06T21:22:35.292Z,43.90
2018-04-06T21:25:02.774Z,44.10
2018-04-06T21:27:30.227Z,43.90
2018-04-06T21:29:57.678Z,44.00
2018-04-06T21:32:25.123Z,43.60
2018-04-06T21:34:52.558Z,43.50
2018-04-06T21:37:20.001Z,43.70
2018-04-06T21:39:48.200Z,45.40
2018-04-06T21:42:15.657Z,45.40
2018-04-06T21:44:43.102Z,45.00
2018-04-06T21:47:11.316Z,44.90
2018-04-06T21:49:38.744Z,44.90
2018-04-06T21:52:06.252Z,45.10
2018-04-06T21:54:33.732Z,45.30
2018-04-06T21:57:02.065Z,45.50
2018-04-06T21:59:29.512Z,45.50
2018-04-06T22:01:57.764Z,45.70
2018-04-06T22:04:25.337Z,45.70
2018-04-06T22:06:52.779Z,47.00
2018-04-06T22:09:20.220Z,45.90
2018-04-06T22:11:47.680Z,46.10
2018-04-06T22:14:16.032Z,46.30
2018-04-06T22:16:43.487Z,46.10
2018-04-06T22:19:11.000Z,46.50
2018-04-06T22:21:39.230Z,46.80
2018-04-06T22:24:07.468Z,48.50
2018-04-06T22:26:34.945Z,48.50
2018-04-06T22:29:02.408Z,47.50
2018-04-06T22:31:29.870Z,47.60
2018-04-06T22:33:58.147Z,47.80
2018-04-06T22:36:26.397Z,47.60
2018-04-06T22:38:53.848Z,47.50
2018-04-06T22:41:21.300Z,47.50
2018-04-06T22:43:48.751Z,47.90
2018-04-06T22:46:16.217Z,47.80
2018-04-06T22:48:43.656Z,48.10
2018-04-06T22:51:11.172Z,48.00
2018-04-06T22:53:38.727Z,48.00
2018-04-06T22:56:06.161Z,48.40
2018-04-06T22:58:33.649Z,48.70
2018-04-06T23:01:01.087Z,48.80
2018-04-06T23:03:28.548Z,48.70
2018-04-06T23:05:55.986Z,51.00
2018-04-06T23:08:24.217Z,53.80
2018-04-06T23:10:51.685Z,53.80
2018-04-06T23:13:19.263Z,54.80
2018-04-06T23:15:47.477Z,56.90
2018-04-06T23:18:14.992Z,56.30
2018-04-06T23:20:42.461Z,54.60
2018-04-06T23:23:09.908Z,53.60
2018-04-06T23:25:37.344Z,52.80
2018-04-06T23:28:04.796Z,53.00
2018-04-06T23:30:33.453Z,52.80
2018-04-06T23:33:01.659Z,52.80
2018-04-06T23:35:29.160Z,52.80
2018-04-06T23:37:56.732Z,53.10
2018-04-06T23:40:24.251Z,53.50
2018-04-06T23:42:51.740Z,53.10
2018-04-06T23:45:20.128Z,53.10
2018-04-06T23:47:47.587Z,53.60
2018-04-06T23:50:15.068Z,54.30
2018-04-06T23:52:44.004Z,57.80
2018-04-06T23:55:11.476Z,57.80
2018-04-06T23:57:38.964Z,60.30
